Time;durP1;ratioP1;P1;durP2;ratioP2;P2;SDS_P1;SDS_P2;PMS_P1;PMS_P2;Temp;Humidity;BMP_temperature;BMP_pressure;BME280_temperature;BME280_humidity;BME280_pressure;Samples;Min_cycle;Max_cycle;Signal;HPM_P1;HPM_P2
2023/08/08 00:02:23;;;;;;;5.67;3.10;;;;;;;;;;5084428;27;88840;-58
2023/08/08 00:04:52;;;;;;;5.27;3.37;;;;;;;;;;5084037;27;87632;-58
2023/08/08 00:07:20;;;;;;;6.77;3.07;;;;;;;;;;5085083;27;87429;-58
2023/08/08 00:09:49;;;;;;;5.30;2.93;;;;;;;;;;5083320;27;88829;-58
2023/08/08 00:12:19;;;;;;;4.57;2.80;;;;;;;;;;5089364;27;88891;-58
2023/08/08 00:14:47;;;;;;;5.53;2.70;;;;;;;;;;5103923;27;87772;-58
2023/08/08 00:17:16;;;;;;;5.10;2.57;;;;;;;;;;5102772;27;89745;-58
2023/08/08 00:19:44;;;;;;;7.57;3.03;;;;;;;;;;5083267;27;89199;-58
2023/08/08 00:22:13;;;;;;;5.70;2.60;;;;;;;;;;5083555;27;87714;-58
2023/08/08 00:24:41;;;;;;;5.53;3.03;;;;;;;;;;5083856;27;87479;-58
2023/08/08 00:27:10;;;;;;;4.77;2.90;;;;;;;;;;5085780;27;89612;-58
2023/08/08 00:29:40;;;;;;;6.17;3.43;;;;;;;;;;5103703;27;87990;-58
2023/08/08 00:32:08;;;;;;;3.70;2.73;;;;;;;;;;5104114;27;88546;-58
2023/08/08 00:34:37;;;;;;;5.27;2.77;;;;;;;;;;5104394;27;87500;-58
2023/08/08 00:37:05;;;;;;;3.40;2.53;;;;;;;;;;5103241;27;89966;-58
2023/08/08 00:39:33;;;;;;;7.17;3.43;;;;;;;;;;5082456;27;89972;-58
2023/08/08 00:42:02;;;;;;;4.73;3.43;;;;;;;;;;5083067;27;89747;-58
2023/08/08 00:44:30;;;;;;;6.13;3.93;;;;;;;;;;5102589;27;87659;-58
2023/08/08 00:47:00;;;;;;;9.87;3.73;;;;;;;;;;5103891;27;89672;-58
2023/08/08 00:49:29;;;;;;;4.93;3.27;;;;;;;;;;5087393;27;89599;-58
2023/08/08 00:51:57;;;;;;;6.67;3.80;;;;;;;;;;5102017;27;87648;-58
2023/08/08 00:54:26;;;;;;;7.13;4.43;;;;;;;;;;5103590;27;87618;-58
2023/08/08 00:56:55;;;;;;;3.73;2.53;;;;;;;;;;5103548;27;89760;-58
2023/08/08 00:59:23;;;;;;;8.50;3.60;;;;;;;;;;5085663;27;89010;-58
2023/08/08 01:01:52;;;;;;;5.83;3.90;;;;;;;;;;5082337;27;88828;-58
2023/08/08 01:04:22;;;;;;;4.90;3.27;;;;;;;;;;5082344;27;87998;-58
2023/08/08 01:06:53;;;;;;;8.60;4.10;;;;;;;;;;5082057;27;89804;-58
2023/08/08 01:09:23;;;;;;;5.27;3.20;;;;;;;;;;5083822;27;91190;-58
2023/08/08 01:11:52;;;;;;;7.60;4.50;;;;;;;;;;5083069;27;87718;-58
2023/08/08 01:14:21;;;;;;;5.43;3.30;;;;;;;;;;5097814;27;87684;-58
2023/08/08 01:16:49;;;;;;;6.30;3.67;;;;;;;;;;5103253;27;89663;-58
2023/08/08 01:19:24;;;;;;;5.47;3.70;;;;;;;;;;5092575;27;88883;-58
2023/08/08 01:21:54;;;;;;;5.33;4.10;;;;;;;;;;5083768;27;88632;-58
2023/08/08 01:24:25;;;;;;;6.93;3.87;;;;;;;;;;5082790;27;87435;-58
2023/08/08 01:26:54;;;;;;;6.17;3.57;;;;;;;;;;5082524;27;89952;-57
2023/08/08 01:29:22;;;;;;;6.60;3.83;;;;;;;;;;5093976;27;89641;-58
2023/08/08 01:31:51;;;;;;;5.83;4.17;;;;;;;;;;5103524;27;89726;-58
2023/08/08 01:34:19;;;;;;;5.20;3.87;;;;;;;;;;5104262;27;87622;-58
2023/08/08 01:36:48;;;;;;;4.97;3.13;;;;;;;;;;5102920;27;89599;-58
2023/08/08 01:39:18;;;;;;;6.40;3.03;;;;;;;;;;5100675;27;88873;-58
2023/08/08 01:41:48;;;;;;;4.67;3.20;;;;;;;;;;5103107;27;88844;-58
2023/08/08 01:44:17;;;;;;;5.27;3.50;;;;;;;;;;5092564;27;87533;-58
2023/08/08 01:46:46;;;;;;;5.57;3.27;;;;;;;;;;5082837;27;89811;-58
2023/08/08 01:49:14;;;;;;;5.23;3.57;;;;;;;;;;5087905;27;89102;-58
2023/08/08 01:51:43;;;;;;;5.00;3.37;;;;;;;;;;5103030;27;88883;-58
2023/08/08 01:54:11;;;;;;;4.57;3.07;;;;;;;;;;5103267;27;87963;-58
2023/08/08 01:56:40;;;;;;;3.67;2.80;;;;;;;;;;5101748;27;89768;-58
2023/08/08 01:59:09;;;;;;;6.00;3.13;;;;;;;;;;5095145;27;89149;-58
2023/08/08 02:01:40;;;;;;;3.47;2.47;;;;;;;;;;5081519;27;88864;-58
2023/08/08 02:04:09;;;;;;;4.27;2.40;;;;;;;;;;5081699;27;87479;-58
2023/08/08 02:06:37;;;;;;;3.53;2.43;;;;;;;;;;5081887;27;90039;-58
2023/08/08 02:09:06;;;;;;;4.83;3.60;;;;;;;;;;5082208;27;89380;-58
2023/08/08 02:11:35;;;;;;;3.63;2.53;;;;;;;;;;5081784;27;88760;-58
2023/08/08 02:14:04;;;;;;;6.20;2.97;;;;;;;;;;5085799;27;87661;-58
2023/08/08 02:16:34;;;;;;;2.87;2.30;;;;;;;;;;5103459;27;89999;-58
2023/08/08 02:19:03;;;;;;;3.70;2.20;;;;;;;;;;5105628;27;89395;-58
2023/08/08 02:21:31;;;;;;;5.60;2.07;;;;;;;;;;5104095;27;88773;-58
2023/08/08 02:24:00;;;;;;;3.20;2.00;;;;;;;;;;5102415;27;87708;-58
2023/08/08 02:26:28;;;;;;;4.40;2.73;;;;;;;;;;5100827;27;89678;-58
2023/08/08 02:28:56;;;;;;;3.37;2.47;;;;;;;;;;5100976;27;88745;-59
2023/08/08 02:31:25;;;;;;;4.23;2.73;;;;;;;;;;5095576;27;88829;-58
2023/08/08 02:33:55;;;;;;;3.00;2.10;;;;;;;;;;5102646;27;87523;-58
2023/08/08 02:36:24;;;;;;;5.67;2.30;;;;;;;;;;5102418;27;89837;-58
2023/08/08 02:38:53;;;;;;;3.10;1.93;;;;;;;;;;5101684;27;89038;-58
2023/08/08 02:41:22;;;;;;;3.80;2.53;;;;;;;;;;5079308;27;91539;-58
2023/08/08 02:43:51;;;;;;;3.03;1.93;;;;;;;;;;5077312;27;88038;-58
2023/08/08 02:46:19;;;;;;;2.63;1.90;;;;;;;;;;5074791;27;89849;-58
2023/08/08 02:48:48;;;;;;;2.97;2.10;;;;;;;;;;5078243;27;87964;-58
2023/08/08 02:51:17;;;;;;;3.60;1.93;;;;;;;;;;5091844;27;87445;-58
2023/08/08 02:53:46;;;;;;;2.87;2.00;;;;;;;;;;5098521;27;88342;-58
2023/08/08 02:56:15;;;;;;;2.03;1.73;;;;;;;;;;5097902;27;89932;-58
2023/08/08 02:58:43;;;;;;;2.43;1.87;;;;;;;;;;5099132;27;89081;-58
2023/08/08 03:01:13;;;;;;;2.30;1.70;;;;;;;;;;5082863;27;89050;-58
2023/08/08 03:03:41;;;;;;;3.07;2.20;;;;;;;;;;5078042;27;87597;-58
2023/08/08 03:06:10;;;;;;;2.00;1.50;;;;;;;;;;5078256;27;90018;-58
2023/08/08 03:08:40;;;;;;;1.80;1.70;;;;;;;;;;5077624;27;92881;-58
2023/08/08 03:11:08;;;;;;;7.47;2.20;;;;;;;;;;5079107;27;90086;-57
2023/08/08 03:13:37;;;;;;;2.40;1.63;;;;;;;;;;5078596;27;87574;-58
2023/08/08 03:16:06;;;;;;;2.97;1.53;;;;;;;;;;5089916;27;89575;-58
2023/08/08 03:18:34;;;;;;;4.47;2.50;;;;;;;;;;5086345;27;89035;-58
2023/08/08 03:21:03;;;;;;;5.73;1.63;;;;;;;;;;5086019;27;88798;-58
2023/08/08 03:23:31;;;;;;;4.20;1.47;;;;;;;;;;5099391;27;87656;-58
2023/08/08 03:26:01;;;;;;;2.80;1.93;;;;;;;;;;5078396;27;89553;-58
2023/08/08 03:28:29;;;;;;;3.83;1.20;;;;;;;;;;5077715;27;89186;-58
2023/08/08 03:30:58;;;;;;;1.43;1.23;;;;;;;;;;5087084;27;88767;-58
2023/08/08 03:33:26;;;;;;;1.83;1.63;;;;;;;;;;5098351;27;88422;-58
2023/08/08 03:35:55;;;;;;;3.03;1.60;;;;;;;;;;5098106;27;88393;-58
2023/08/08 03:38:23;;;;;;;2.57;1.40;;;;;;;;;;5097748;27;89173;-58
2023/08/08 03:40:52;;;;;;;3.90;1.77;;;;;;;;;;5095691;27;89188;-58
2023/08/08 03:43:22;;;;;;;2.83;1.40;;;;;;;;;;5097809;27;88012;-58
2023/08/08 03:45:50;;;;;;;3.53;1.40;;;;;;;;;;5091770;27;89348;-58
2023/08/08 03:48:19;;;;;;;3.23;1.63;;;;;;;;;;5077987;27;89551;-58
2023/08/08 03:50:47;;;;;;;3.43;2.03;;;;;;;;;;5079155;27;87613;-58
2023/08/08 03:53:16;;;;;;;3.07;1.93;;;;;;;;;;5077163;27;88105;-58
2023/08/08 03:55:44;;;;;;;2.97;1.90;;;;;;;;;;5076605;27;89628;-58
2023/08/08 03:58:12;;;;;;;2.97;2.17;;;;;;;;;;5076245;27;89668;-58
2023/08/08 04:00:46;;;;;;;3.50;2.17;;;;;;;;;;5079136;27;89073;-58
2023/08/08 04:03:15;;;;;;;1.87;1.50;;;;;;;;;;5098026;27;87688;-58
2023/08/08 04:05:46;;;;;;;4.00;2.00;;;;;;;;;;5097189;27;89804;-58
2023/08/08 04:08:15;;;;;;;2.93;1.90;;;;;;;;;;5097481;27;89114;-58
2023/08/08 04:10:43;;;;;;;4.13;2.57;;;;;;;;;;5096607;27;87801;-58
2023/08/08 04:13:12;;;;;;;5.00;2.70;;;;;;;;;;5078911;27;87554;-58
2023/08/08 04:15:40;;;;;;;3.37;2.17;;;;;;;;;;5075744;27;89309;-58
2023/08/08 04:18:10;;;;;;;4.13;2.93;;;;;;;;;;5078466;27;89146;-58
2023/08/08 04:20:38;;;;;;;4.10;2.43;;;;;;;;;;5080002;27;88922;-57
2023/08/08 04:23:07;;;;;;;5.47;2.80;;;;;;;;;;5097348;27;90936;-57
2023/08/08 04:25:35;;;;;;;4.90;3.07;;;;;;;;;;5103917;27;89756;-57
2023/08/08 04:28:04;;;;;;;6.50;3.10;;;;;;;;;;5097601;27;87381;-58
2023/08/08 04:30:32;;;;;;;4.63;2.80;;;;;;;;;;5084133;27;87679;-58
2023/08/08 04:33:01;;;;;;;2.47;2.27;;;;;;;;;;5083459;27;87753;-58
2023/08/08 04:35:31;;;;;;;4.37;2.97;;;;;;;;;;5083314;27;89788;-58
2023/08/08 04:37:58;;;;;;;6.97;2.93;;;;;;;;;;5083124;27;87524;-58
2023/08/08 04:40:27;;;;;;;4.23;2.57;;;;;;;;;;5087899;27;88637;-58
2023/08/08 04:42:55;;;;;;;5.57;3.13;;;;;;;;;;5098947;27;87591;-58
2023/08/08 04:45:24;;;;;;;4.13;2.43;;;;;;;;;;5095999;27;89675;-58
2023/08/08 04:47:52;;;;;;;3.93;2.67;;;;;;;;;;5082480;27;88571;-58
2023/08/08 04:50:21;;;;;;;3.20;2.40;;;;;;;;;;5083479;27;89833;-58
2023/08/08 04:52:50;;;;;;;4.20;2.80;;;;;;;;;;5103051;27;87538;-58
2023/08/08 04:55:19;;;;;;;3.27;2.47;;;;;;;;;;5100465;27;89437;-58
2023/08/08 04:57:49;;;;;;;5.97;3.20;;;;;;;;;;5082984;27;89354;-58
2023/08/08 05:00:17;;;;;;;2.83;2.00;;;;;;;;;;5086907;27;88905;-58
2023/08/08 05:02:46;;;;;;;3.37;2.43;;;;;;;;;;5103720;27;87654;-58
2023/08/08 05:05:14;;;;;;;4.60;3.00;;;;;;;;;;5103617;27;89656;-58
2023/08/08 05:07:43;;;;;;;3.00;2.13;;;;;;;;;;5102716;27;88857;-58
2023/08/08 05:10:13;;;;;;;3.87;2.47;;;;;;;;;;5102830;27;87606;-58
2023/08/08 05:12:42;;;;;;;2.70;2.13;;;;;;;;;;5101913;27;87897;-57
2023/08/08 05:15:10;;;;;;;7.23;2.40;;;;;;;;;;5101063;27;89941;-58
2023/08/08 05:17:39;;;;;;;2.57;2.27;;;;;;;;;;5082188;27;89068;-58
2023/08/08 05:20:08;;;;;;;3.07;2.23;;;;;;;;;;5082026;27;88902;-58
2023/08/08 05:22:37;;;;;;;2.97;1.80;;;;;;;;;;5096997;27;89192;-58
2023/08/08 05:25:06;;;;;;;2.87;1.90;;;;;;;;;;5102602;27;89773;-57
2023/08/08 05:27:35;;;;;;;3.57;2.40;;;;;;;;;;5102017;27;89013;-58
2023/08/08 05:30:05;;;;;;;2.77;1.90;;;;;;;;;;5103138;27;88734;-58
2023/08/08 05:32:33;;;;;;;3.60;2.00;;;;;;;;;;5101312;27;87762;-58
2023/08/08 05:35:04;;;;;;;4.40;2.13;;;;;;;;;;5098282;27;88706;-58
2023/08/08 05:37:33;;;;;;;3.03;2.20;;;;;;;;;;5075650;27;89984;-57
2023/08/08 05:40:01;;;;;;;1.90;1.73;;;;;;;;;;5082300;27;89755;-58
2023/08/08 05:42:31;;;;;;;3.30;2.03;;;;;;;;;;5085444;27;88234;-58
2023/08/08 05:45:01;;;;;;;3.10;2.00;;;;;;;;;;5085683;27;89775;-58
2023/08/08 05:47:30;;;;;;;2.20;1.80;;;;;;;;;;5089009;27;88948;-58
2023/08/08 05:49:58;;;;;;;1.87;1.67;;;;;;;;;;5081223;27;88110;-58
2023/08/08 05:52:26;;;;;;;4.80;1.80;;;;;;;;;;5071316;27;87524;-58
2023/08/08 05:54:55;;;;;;;2.27;1.70;;;;;;;;;;5082335;27;88504;-58
2023/08/08 05:57:23;;;;;;;3.13;1.60;;;;;;;;;;5085630;27;88901;-58
2023/08/08 05:59:52;;;;;;;2.87;1.93;;;;;;;;;;5088374;27;88538;-57
2023/08/08 06:02:22;;;;;;;1.90;1.50;;;;;;;;;;5080977;27;87947;-57
2023/08/08 06:04:50;;;;;;;2.80;1.57;;;;;;;;;;5082916;27;89871;-58
2023/08/08 06:07:19;;;;;;;2.77;1.87;;;;;;;;;;5083062;27;89120;-58
2023/08/08 06:09:47;;;;;;;2.10;1.57;;;;;;;;;;5103066;27;88708;-60
2023/08/08 06:12:16;;;;;;;1.43;1.27;;;;;;;;;;5103320;27;87645;-64
2023/08/08 06:14:45;;;;;;;3.17;1.57;;;;;;;;;;5096295;27;89791;-59
2023/08/08 06:17:14;;;;;;;1.67;1.50;;;;;;;;;;5082252;27;89131;-57
2023/08/08 06:19:45;;;;;;;1.50;1.30;;;;;;;;;;5082651;27;88780;-59
2023/08/08 06:22:13;;;;;;;1.57;1.27;;;;;;;;;;5081918;27;87615;-62
2023/08/08 06:24:42;;;;;;;3.30;1.50;;;;;;;;;;5079487;27;89832;-59
2023/08/08 06:27:10;;;;;;;10.23;2.00;;;;;;;;;;5071161;27;90179;-59
2023/08/08 06:29:39;;;;;;;1.53;1.30;;;;;;;;;;5079260;27;89845;-59
2023/08/08 06:32:08;;;;;;;1.60;1.33;;;;;;;;;;5078617;27;87869;-59
2023/08/08 06:34:36;;;;;;;1.80;1.13;;;;;;;;;;5081201;27;88490;-59
2023/08/08 06:37:06;;;;;;;2.70;1.20;;;;;;;;;;5086411;27;89070;-59
2023/08/08 06:39:37;;;;;;;2.70;1.50;;;;;;;;;;5081267;27;88911;-59
2023/08/08 06:42:06;;;;;;;1.70;1.20;;;;;;;;;;5081054;27;87612;-60
2023/08/08 06:44:35;;;;;;;1.10;1.00;;;;;;;;;;5080593;27;89889;-60
2023/08/08 06:47:03;;;;;;;3.53;1.27;;;;;;;;;;5096578;27;88047;-58
2023/08/08 06:49:32;;;;;;;2.53;1.27;;;;;;;;;;5074496;27;88896;-58
2023/08/08 06:52:00;;;;;;;1.50;1.10;;;;;;;;;;5090018;27;87981;-58
2023/08/08 06:54:30;;;;;;;1.67;0.90;;;;;;;;;;5080505;27;89632;-58
2023/08/08 06:56:59;;;;;;;2.27;0.83;;;;;;;;;;5082860;27;89075;-59
2023/08/08 06:59:29;;;;;;;0.63;0.63;;;;;;;;;;5081205;27;87823;-58
2023/08/08 07:01:57;;;;;;;1.27;0.90;;;;;;;;;;5093020;27;87632;-58
2023/08/08 07:04:26;;;;;;;1.43;0.90;;;;;;;;;;5099024;27;89628;-58
2023/08/08 07:06:54;;;;;;;2.40;1.37;;;;;;;;;;5080859;27;89106;-58
2023/08/08 07:09:23;;;;;;;1.83;1.37;;;;;;;;;;5080242;27;88765;-58
2023/08/08 07:11:53;;;;;;;2.57;1.37;;;;;;;;;;5088701;27;87632;-58
2023/08/08 07:14:22;;;;;;;2.23;1.33;;;;;;;;;;5101560;27;89560;-58
2023/08/08 07:16:50;;;;;;;1.73;1.07;;;;;;;;;;5090770;27;88792;-58
2023/08/08 07:19:19;;;;;;;3.17;1.30;;;;;;;;;;5079936;27;90074;-58
2023/08/08 07:21:48;;;;;;;1.47;1.13;;;;;;;;;;5083343;27;87654;-58
2023/08/08 07:24:16;;;;;;;1.27;1.13;;;;;;;;;;5101054;27;88388;-58
2023/08/08 07:26:45;;;;;;;2.03;1.30;;;;;;;;;;5096985;27;89119;-58
2023/08/08 07:29:15;;;;;;;1.53;1.20;;;;;;;;;;5092089;27;89065;-56
2023/08/08 07:31:43;;;;;;;7.10;1.73;;;;;;;;;;5081243;27;87484;-56
2023/08/08 07:34:12;;;;;;;2.33;1.37;;;;;;;;;;5080367;27;89604;-56
2023/08/08 07:36:40;;;;;;;2.33;1.20;;;;;;;;;;5081851;27;88806;-56
2023/08/08 07:39:09;;;;;;;2.13;1.50;;;;;;;;;;5080320;27;88610;-61
2023/08/08 07:41:38;;;;;;;1.40;1.13;;;;;;;;;;5079661;27;87903;-56
2023/08/08 07:44:06;;;;;;;2.37;1.73;;;;;;;;;;5080132;27;88390;-57
2023/08/08 07:46:36;;;;;;;2.87;2.00;;;;;;;;;;5080616;27;89048;-56
2023/08/08 07:49:06;;;;;;;2.53;2.00;;;;;;;;;;5080510;27;88890;-56
2023/08/08 07:51:35;;;;;;;3.57;1.47;;;;;;;;;;5079964;27;87696;-60
2023/08/08 07:54:05;;;;;;;2.57;1.83;;;;;;;;;;5080222;27;89601;-58
2023/08/08 07:56:34;;;;;;;3.23;1.97;;;;;;;;;;5080027;27;90207;-57
2023/08/08 07:59:02;;;;;;;2.47;1.80;;;;;;;;;;5095204;27;88891;-59
2023/08/08 08:01:31;;;;;;;2.07;1.70;;;;;;;;;;5083704;27;87668;-57
2023/08/08 08:04:02;;;;;;;3.57;1.80;;;;;;;;;;5083584;27;89934;-57
2023/08/08 08:06:31;;;;;;;4.57;1.53;;;;;;;;;;5083043;27;89961;-57
2023/08/08 08:08:59;;;;;;;1.77;1.20;;;;;;;;;;5091422;27;89830;-57
2023/08/08 08:11:29;;;;;;;1.47;1.13;;;;;;;;;;5083569;27;87597;-57
2023/08/08 08:13:57;;;;;;;1.80;1.17;;;;;;;;;;5084184;27;89788;-57
2023/08/08 08:16:26;;;;;;;5.93;1.50;;;;;;;;;;5076324;27;89185;-57
2023/08/08 08:18:54;;;;;;;1.33;1.10;;;;;;;;;;5091811;27;88977;-57
2023/08/08 08:21:24;;;;;;;2.47;1.20;;;;;;;;;;5103950;27;87494;-57
2023/08/08 08:23:53;;;;;;;1.80;1.20;;;;;;;;;;5104300;27;90260;-58
2023/08/08 08:26:21;;;;;;;2.40;1.03;;;;;;;;;;5103338;27;89056;-57
2023/08/08 08:28:50;;;;;;;1.77;1.10;;;;;;;;;;5103942;27;88740;-57
2023/08/08 08:31:18;;;;;;;0.97;0.70;;;;;;;;;;5103968;27;87960;-57
2023/08/08 08:33:47;;;;;;;0.83;0.60;;;;;;;;;;5103493;27;89781;-57
2023/08/08 08:36:15;;;;;;;1.37;0.90;;;;;;;;;;5103614;27;89124;-57
2023/08/08 08:38:46;;;;;;;1.67;1.10;;;;;;;;;;5103029;27;88837;-57
2023/08/08 08:41:16;;;;;;;1.27;0.60;;;;;;;;;;5104389;27;87444;-57
2023/08/08 08:43:45;;;;;;;1.00;0.90;;;;;;;;;;5102787;27;89464;-57
2023/08/08 08:46:14;;;;;;;0.90;0.60;;;;;;;;;;5103445;27;89129;-57
2023/08/08 08:48:43;;;;;;;0.87;0.63;;;;;;;;;;5103827;27;89001;-57
2023/08/08 08:51:11;;;;;;;0.90;0.77;;;;;;;;;;5102717;27;87452;-57
2023/08/08 08:53:46;;;;;;;3.83;1.07;;;;;;;;;;5103395;27;89760;-57
2023/08/08 08:56:16;;;;;;;0.80;0.70;;;;;;;;;;5103273;27;89744;-57
2023/08/08 08:58:45;;;;;;;1.93;1.07;;;;;;;;;;5104325;27;89763;-58
2023/08/08 09:01:13;;;;;;;2.37;1.20;;;;;;;;;;5104165;27;87576;-58
2023/08/08 09:03:42;;;;;;;1.40;1.30;;;;;;;;;;5103125;27;89726;-57
2023/08/08 09:06:10;;;;;;;2.03;1.13;;;;;;;;;;5103251;27;87970;-58
2023/08/08 09:08:39;;;;;;;1.73;1.00;;;;;;;;;;5103643;27;88898;-58
2023/08/08 09:11:07;;;;;;;2.53;1.47;;;;;;;;;;5104041;27;87639;-58
2023/08/08 09:13:39;;;;;;;2.07;1.30;;;;;;;;;;5103849;27;88495;-57
2023/08/08 09:16:09;;;;;;;1.73;1.13;;;;;;;;;;5102843;27;88218;-57
2023/08/08 09:18:38;;;;;;;1.77;1.23;;;;;;;;;;5103637;27;88709;-57
2023/08/08 09:21:07;;;;;;;2.30;1.27;;;;;;;;;;5102842;27;87902;-57
2023/08/08 09:23:36;;;;;;;2.50;1.27;;;;;;;;;;5102891;27;89674;-57
2023/08/08 09:26:05;;;;;;;2.10;1.60;;;;;;;;;;5103050;27;88045;-58
2023/08/08 09:28:33;;;;;;;3.40;1.80;;;;;;;;;;5102615;27;88526;-57
2023/08/08 09:31:03;;;;;;;2.43;1.20;;;;;;;;;;5103119;27;87516;-58
2023/08/08 09:33:32;;;;;;;1.90;1.37;;;;;;;;;;5103383;27;89677;-57
2023/08/08 09:36:00;;;;;;;2.07;1.40;;;;;;;;;;5103336;27;88666;-57
2023/08/08 09:38:29;;;;;;;3.13;1.83;;;;;;;;;;5103052;27;89150;-57
2023/08/08 09:40:57;;;;;;;2.30;1.30;;;;;;;;;;5103394;27;87658;-58
2023/08/08 09:43:26;;;;;;;3.13;1.93;;;;;;;;;;5101794;27;89638;-58
2023/08/08 09:45:54;;;;;;;1.87;1.40;;;;;;;;;;5102197;27;89069;-58
2023/08/08 09:48:24;;;;;;;1.70;1.47;;;;;;;;;;5102648;27;89699;-58
2023/08/08 09:50:53;;;;;;;3.03;1.50;;;;;;;;;;5103594;27;87440;-58
2023/08/08 09:53:21;;;;;;;2.30;1.50;;;;;;;;;;5102250;27;89729;-58
2023/08/08 09:55:50;;;;;;;2.93;1.30;;;;;;;;;;5103162;27;87749;-58
2023/08/08 09:58:18;;;;;;;1.77;1.30;;;;;;;;;;5103874;27;87717;-58
2023/08/08 10:00:47;;;;;;;2.70;1.80;;;;;;;;;;5103031;27;87590;-58
2023/08/08 10:03:15;;;;;;;4.63;1.30;;;;;;;;;;5102740;27;87460;-58
2023/08/08 10:05:45;;;;;;;4.27;1.73;;;;;;;;;;5101934;27;89066;-58
2023/08/08 10:08:16;;;;;;;2.53;1.30;;;;;;;;;;5102413;27;91850;-57
2023/08/08 10:10:44;;;;;;;2.80;1.23;;;;;;;;;;5102335;27;88036;-58
2023/08/08 10:13:20;;;;;;;1.77;1.40;;;;;;;;;;5102378;27;88293;-58
2023/08/08 10:15:48;;;;;;;2.93;1.90;;;;;;;;;;5103076;27;89152;-58
2023/08/08 10:18:17;;;;;;;1.90;1.63;;;;;;;;;;5101980;27;88905;-58
2023/08/08 10:20:48;;;;;;;2.13;1.53;;;;;;;;;;5101692;27;87484;-58
2023/08/08 10:23:16;;;;;;;2.50;1.80;;;;;;;;;;5101711;27;88647;-58
2023/08/08 10:25:45;;;;;;;2.23;1.87;;;;;;;;;;5102200;27;89153;-58
2023/08/08 10:28:15;;;;;;;3.37;2.30;;;;;;;;;;5102032;27;88788;-58
2023/08/08 10:30:55;;;;;;;2.70;1.73;;;;;;;;;;5102303;27;87455;-58
2023/08/08 10:33:24;;;;;;;2.90;2.40;;;;;;;;;;5101472;27;89502;-58
2023/08/08 10:35:55;;;;;;;2.00;1.30;;;;;;;;;;5102241;27;89843;-58
2023/08/08 10:38:24;;;;;;;4.23;1.90;;;;;;;;;;5102760;27;89392;-58
2023/08/08 10:40:58;;;;;;;3.10;1.50;;;;;;;;;;5102845;27;87581;-58
2023/08/08 10:43:28;;;;;;;3.53;1.70;;;;;;;;;;5101395;27;90318;-58
2023/08/08 10:45:59;;;;;;;2.60;2.00;;;;;;;;;;5101755;27;90159;-58
2023/08/08 10:48:50;;;;;;;4.10;2.00;;;;;;;;;;5101894;27;88761;-58
2023/08/08 10:51:20;;;;;;;3.03;1.90;;;;;;;;;;5102766;27;87678;-58
2023/08/08 10:53:49;;;;;;;4.77;2.03;;;;;;;;;;5102347;27;91010;-58
2023/08/08 10:56:19;;;;;;;2.37;1.70;;;;;;;;;;5101637;27;89034;-58
2023/08/08 10:58:48;;;;;;;1.77;1.57;;;;;;;;;;5101044;27;89355;-58
2023/08/08 11:01:17;;;;;;;1.23;1.10;;;;;;;;;;5101171;27;87960;-58
2023/08/08 11:03:47;;;;;;;2.43;1.90;;;;;;;;;;5101613;27;89870;-58
2023/08/08 11:06:16;;;;;;;3.90;1.80;;;;;;;;;;5102322;27;88895;-58
2023/08/08 11:08:46;;;;;;;2.93;1.77;;;;;;;;;;5101905;27;88849;-58
2023/08/08 11:11:14;;;;;;;2.47;2.03;;;;;;;;;;5102319;27;87360;-58
2023/08/08 11:13:43;;;;;;;2.80;1.63;;;;;;;;;;5101759;27;88670;-58
2023/08/08 11:16:12;;;;;;;1.97;1.77;;;;;;;;;;5101995;27;89147;-58
2023/08/08 11:18:40;;;;;;;3.37;1.77;;;;;;;;;;5102080;27;87322;-58
2023/08/08 11:21:11;;;;;;;3.57;2.00;;;;;;;;;;5101942;27;87618;-60
2023/08/08 11:23:48;;;;;;;1.60;1.37;;;;;;;;;;5101647;27;89835;-58
2023/08/08 11:26:19;;;;;;;2.40;1.47;;;;;;;;;;5101364;27;90035;-58
2023/08/08 11:28:52;;;;;;;3.30;2.23;;;;;;;;;;5101661;27;89976;-58
2023/08/08 11:31:20;;;;;;;2.60;1.60;;;;;;;;;;5101534;27;87468;-58
2023/08/08 11:33:49;;;;;;;4.23;1.97;;;;;;;;;;5104919;27;89584;-58
2023/08/08 11:36:18;;;;;;;1.53;1.20;;;;;;;;;;5103935;27;89280;-58
2023/08/08 11:38:46;;;;;;;1.47;1.37;;;;;;;;;;5104769;27;88639;-58
2023/08/08 11:41:17;;;;;;;2.60;1.30;;;;;;;;;;5105191;27;87567;-58
2023/08/08 11:43:46;;;;;;;2.97;1.60;;;;;;;;;;5103919;27;89649;-58
2023/08/08 11:46:14;;;;;;;2.17;1.07;;;;;;;;;;5104159;27;89457;-58
2023/08/08 11:48:43;;;;;;;2.37;1.37;;;;;;;;;;5104627;27;87733;-58
2023/08/08 11:51:12;;;;;;;2.93;1.43;;;;;;;;;;5105115;27;88030;-58
2023/08/08 11:53:49;;;;;;;3.00;1.33;;;;;;;;;;5105097;27;89584;-57
2023/08/08 11:56:19;;;;;;;3.40;1.60;;;;;;;;;;5104525;27;89080;-58
2023/08/08 11:58:47;;;;;;;2.17;1.30;;;;;;;;;;5104655;27;88909;-58
2023/08/08 12:01:16;;;;;;;2.90;1.70;;;;;;;;;;5105242;27;87631;-58
2023/08/08 12:03:45;;;;;;;1.83;1.10;;;;;;;;;;5104833;27;89731;-58
2023/08/08 12:06:14;;;;;;;1.97;1.27;;;;;;;;;;5104529;27;89520;-58
2023/08/08 12:08:44;;;;;;;3.63;1.20;;;;;;;;;;5103934;27;89319;-58
2023/08/08 12:11:13;;;;;;;1.23;1.13;;;;;;;;;;5104992;27;87607;-58
2023/08/08 12:13:44;;;;;;;1.00;0.90;;;;;;;;;;5104382;27;89532;-58
2023/08/08 12:16:13;;;;;;;1.53;1.10;;;;;;;;;;5103387;27;89363;-58
2023/08/08 12:18:45;;;;;;;1.23;0.90;;;;;;;;;;5104095;27;89661;-58
2023/08/08 12:21:14;;;;;;;2.33;1.23;;;;;;;;;;5104478;27;87258;-58
2023/08/08 12:23:43;;;;;;;1.10;1.00;;;;;;;;;;5104062;27;89533;-58
2023/08/08 12:26:12;;;;;;;1.70;1.03;;;;;;;;;;5104490;27;89161;-58
2023/08/08 12:28:40;;;;;;;1.13;0.93;;;;;;;;;;5104436;27;88815;-58
2023/08/08 12:31:10;;;;;;;2.93;1.37;;;;;;;;;;5104333;27;87649;-58
2023/08/08 12:33:39;;;;;;;1.43;1.13;;;;;;;;;;5103886;27;89732;-58
2023/08/08 12:36:08;;;;;;;0.87;0.80;;;;;;;;;;5103844;27;89200;-58
2023/08/08 12:38:37;;;;;;;1.00;0.87;;;;;;;;;;5103836;27;88858;-58
2023/08/08 12:41:05;;;;;;;0.50;0.50;;;;;;;;;;5103797;27;87925;-58
2023/08/08 12:43:34;;;;;;;1.07;0.70;;;;;;;;;;5102460;27;89650;-58
2023/08/08 12:46:03;;;;;;;1.70;0.70;;;;;;;;;;5103793;27;89162;-58
2023/08/08 12:48:33;;;;;;;0.60;0.60;;;;;;;;;;5103914;27;88087;-58
2023/08/08 12:51:01;;;;;;;1.17;0.63;;;;;;;;;;5103965;27;87572;-58
2023/08/08 12:53:30;;;;;;;0.80;0.50;;;;;;;;;;5103153;27;89647;-58
2023/08/08 12:55:58;;;;;;;2.10;1.00;;;;;;;;;;5103301;27;89245;-58
2023/08/08 12:58:27;;;;;;;2.00;0.80;;;;;;;;;;5103389;27;88517;-58
2023/08/08 13:00:55;;;;;;;1.03;0.73;;;;;;;;;;5103327;27;87352;-58
2023/08/08 13:03:24;;;;;;;0.60;0.60;;;;;;;;;;5103955;27;89690;-58
2023/08/08 13:05:54;;;;;;;0.90;0.70;;;;;;;;;;5102987;27;90047;-58
2023/08/08 13:08:23;;;;;;;0.93;0.70;;;;;;;;;;5102964;27;89876;-58
2023/08/08 13:10:52;;;;;;;0.80;0.73;;;;;;;;;;5103078;27;87567;-58
2023/08/08 13:13:24;;;;;;;3.00;0.80;;;;;;;;;;5103620;27;89786;-58
2023/08/08 13:15:53;;;;;;;0.60;0.60;;;;;;;;;;5103589;27;89012;-58
2023/08/08 13:18:22;;;;;;;0.80;0.80;;;;;;;;;;5082722;27;88977;-58
2023/08/08 13:20:50;;;;;;;0.80;0.60;;;;;;;;;;5079657;27;87949;-58
2023/08/08 13:23:20;;;;;;;2.13;0.60;;;;;;;;;;5079776;27;89849;-58
2023/08/08 13:25:49;;;;;;;1.20;0.70;;;;;;;;;;5079038;27;89079;-58
2023/08/08 13:28:18;;;;;;;1.57;0.80;;;;;;;;;;5079468;27;89086;-58
2023/08/08 13:30:46;;;;;;;1.87;1.03;;;;;;;;;;5078896;27;88362;-58
2023/08/08 13:33:15;;;;;;;1.67;0.90;;;;;;;;;;5079884;27;88445;-58
2023/08/08 13:35:43;;;;;;;1.10;0.97;;;;;;;;;;5079803;27;89390;-58
2023/08/08 13:38:14;;;;;;;2.37;1.23;;;;;;;;;;5079045;27;88727;-58
2023/08/08 13:40:44;;;;;;;1.53;0.87;;;;;;;;;;5078905;27;87423;-58
2023/08/08 13:43:13;;;;;;;1.27;1.00;;;;;;;;;;5078556;27;89657;-58
2023/08/08 13:45:42;;;;;;;3.40;1.23;;;;;;;;;;5079354;27;89275;-58
2023/08/08 13:48:11;;;;;;;1.93;1.00;;;;;;;;;;5079197;27;88908;-58
2023/08/08 13:50:39;;;;;;;1.33;0.83;;;;;;;;;;5079773;27;87531;-58
2023/08/08 13:53:08;;;;;;;0.80;0.80;;;;;;;;;;5079138;27;90260;-58
2023/08/08 13:55:39;;;;;;;0.80;0.73;;;;;;;;;;5076410;27;90044;-58
2023/08/08 13:58:10;;;;;;;1.00;0.93;;;;;;;;;;5078752;27;87482;-58
2023/08/08 14:00:38;;;;;;;1.47;1.00;;;;;;;;;;5079583;27;87339;-58
2023/08/08 14:03:07;;;;;;;1.77;1.10;;;;;;;;;;5079293;27;90005;-58
2023/08/08 14:05:37;;;;;;;2.37;0.93;;;;;;;;;;5079086;27;89142;-57
2023/08/08 14:08:06;;;;;;;0.67;0.63;;;;;;;;;;5078813;27;88872;-58
2023/08/08 14:10:35;;;;;;;2.53;0.70;;;;;;;;;;5078030;27;87662;-58
2023/08/08 14:13:03;;;;;;;0.67;0.67;;;;;;;;;;5079263;27;89959;-58
2023/08/08 14:15:34;;;;;;;0.80;0.80;;;;;;;;;;5078914;27;88795;-58
2023/08/08 14:18:03;;;;;;;1.90;0.70;;;;;;;;;;5078591;27;88424;-58
2023/08/08 14:20:31;;;;;;;1.13;0.80;;;;;;;;;;5077791;27;88502;-58
2023/08/08 14:23:00;;;;;;;0.63;0.60;;;;;;;;;;5078707;27;90253;-58
2023/08/08 14:25:29;;;;;;;1.30;0.80;;;;;;;;;;5077645;27;89051;-58
2023/08/08 14:27:58;;;;;;;1.07;0.57;;;;;;;;;;5078020;27;88740;-58
2023/08/08 14:30:28;;;;;;;1.77;0.90;;;;;;;;;;5078805;27;88213;-58
2023/08/08 14:32:58;;;;;;;1.80;1.10;;;;;;;;;;5078389;27;90452;-58
2023/08/08 14:35:27;;;;;;;0.73;0.63;;;;;;;;;;5077955;27;89201;-58
2023/08/08 14:37:56;;;;;;;1.53;0.90;;;;;;;;;;5077672;27;88097;-58
2023/08/08 14:40:25;;;;;;;0.77;0.70;;;;;;;;;;5078809;27;88078;-58
2023/08/08 14:42:53;;;;;;;1.23;0.90;;;;;;;;;;5077926;27;90264;-58
2023/08/08 14:45:24;;;;;;;1.57;1.00;;;;;;;;;;5077064;27;90150;-58
2023/08/08 14:47:52;;;;;;;1.87;1.00;;;;;;;;;;5077622;27;89740;-58
2023/08/08 14:50:22;;;;;;;1.13;1.00;;;;;;;;;;5078365;27;87664;-58
2023/08/08 14:52:51;;;;;;;2.80;1.30;;;;;;;;;;5077296;27;88303;-58
2023/08/08 14:55:19;;;;;;;2.10;1.27;;;;;;;;;;5078554;27;89140;-58